createdAt,value
2022-09-06T00:00:31.311Z,100.00
2022-09-06T00:01:33.089Z,100.00
2022-09-06T00:02:37.930Z,100.00
2022-09-06T00:03:40.010Z,100.00
2022-09-06T00:04:44.479Z,100.00
2022-09-06T00:05:46.333Z,100.00
2022-09-06T00:06:50.730Z,100.00
2022-09-06T00:07:52.568Z,100.00
2022-09-06T00:08:57.107Z,100.00
2022-09-06T00:09:58.932Z,100.00
2022-09-06T00:11:03.850Z,100.00
2022-09-06T00:12:05.802Z,100.00
2022-09-06T00:13:11.320Z,100.00
2022-09-06T00:14:13.106Z,100.00
2022-09-06T00:15:17.500Z,100.00
2022-09-06T00:16:21.144Z,100.00
2022-09-06T00:17:25.667Z,100.00
2022-09-06T00:18:27.578Z,100.00
2022-09-06T00:19:32.101Z,100.00
2022-09-06T00:20:34.754Z,100.00
2022-09-06T00:21:39.241Z,100.00
2022-09-06T00:22:41.186Z,100.00
2022-09-06T00:23:45.583Z,100.00
2022-09-06T00:24:47.400Z,100.00
2022-09-06T00:25:51.826Z,100.00
2022-09-06T00:26:53.665Z,100.00
2022-09-06T00:27:58.939Z,100.00
2022-09-06T00:29:00.782Z,100.00
2022-09-06T00:30:07.285Z,100.00
2022-09-06T00:31:09.929Z,100.00
2022-09-06T00:32:14.371Z,100.00
2022-09-06T00:33:16.201Z,100.00
2022-09-06T00:34:20.606Z,100.00
2022-09-06T00:35:24.678Z,100.00
2022-09-06T00:36:29.254Z,100.00
2022-09-06T00:37:31.091Z,100.00
2022-09-06T00:38:35.679Z,100.00
2022-09-06T00:39:37.575Z,100.00
2022-09-06T00:40:42.166Z,100.00
2022-09-06T00:41:43.981Z,100.00
2022-09-06T00:42:48.366Z,100.00
2022-09-06T00:43:50.264Z,100.00
2022-09-06T00:44:54.699Z,100.00
2022-09-06T00:45:59.343Z,100.00
2022-09-06T00:47:01.362Z,100.00
2022-09-06T00:48:05.912Z,100.00
2022-09-06T00:49:09.684Z,100.00
2022-09-06T00:50:14.832Z,100.00
2022-09-06T00:51:17.315Z,100.00
2022-09-06T00:52:22.067Z,100.00
2022-09-06T00:53:23.893Z,100.00
2022-09-06T00:54:28.331Z,100.00
2022-09-06T00:55:30.190Z,100.00
2022-09-06T00:56:35.241Z,100.00
2022-09-06T00:57:37.043Z,100.00
2022-09-06T00:58:41.459Z,100.00
2022-09-06T00:59:43.680Z,100.00
2022-09-06T01:00:48.159Z,100.00
2022-09-06T01:01:50.069Z,100.00
2022-09-06T01:02:54.948Z,100.00
2022-09-06T01:03:56.885Z,100.00
2022-09-06T01:05:01.461Z,100.00
2022-09-06T01:06:24.712Z,100.00
2022-09-06T01:07:44.810Z,100.00
2022-09-06T01:09:00.794Z,100.00
2022-09-06T01:10:24.210Z,100.00
2022-09-06T01:11:29.771Z,100.00
2022-09-06T01:12:52.897Z,100.00
2022-09-06T01:13:54.751Z,100.00
2022-09-06T01:15:08.724Z,100.00
2022-09-06T01:16:19.657Z,100.00
2022-09-06T01:17:27.130Z,100.00
2022-09-06T01:18:32.450Z,100.00
2022-09-06T01:19:42.706Z,100.00
2022-09-06T01:20:50.699Z,100.00
2022-09-06T01:21:55.050Z,100.00
2022-09-06T01:23:15.696Z,100.00
2022-09-06T01:24:20.104Z,100.00
2022-09-06T01:25:40.437Z,100.00
2022-09-06T01:26:56.903Z,100.00
2022-09-06T01:28:10.903Z,100.00
2022-09-06T01:29:26.450Z,100.00
2022-09-06T01:30:28.309Z,100.00
2022-09-06T01:31:38.122Z,100.00
2022-09-06T01:32:58.755Z,100.00
2022-09-06T01:34:09.153Z,100.00
2022-09-06T01:35:32.343Z,100.00
2022-09-06T01:36:49.660Z,100.00
2022-09-06T01:38:04.063Z,100.00
2022-09-06T01:39:05.922Z,100.00
2022-09-06T01:40:10.691Z,100.00
2022-09-06T01:41:12.667Z,100.00
2022-09-06T01:42:26.846Z,100.00
2022-09-06T01:43:35.021Z,100.00
2022-09-06T01:44:36.882Z,100.00
2022-09-06T01:46:00.477Z,100.00
2022-09-06T01:47:05.402Z,100.00
2022-09-06T01:48:27.832Z,100.00
2022-09-06T01:49:34.351Z,100.00
2022-09-06T01:50:57.017Z,100.00
2022-09-06T01:52:19.804Z,100.00
2022-09-06T01:53:40.446Z,100.00
2022-09-06T01:55:03.427Z,100.00
2022-09-06T01:56:09.105Z,100.00
2022-09-06T01:57:20.418Z,100.00
2022-09-06T01:58:40.150Z,100.00
2022-09-06T01:59:49.229Z,100.00
2022-09-06T02:00:51.090Z,100.00
2022-09-06T02:02:00.527Z,100.00
2022-09-06T02:03:12.282Z,100.00
2022-09-06T02:04:25.662Z,100.00
2022-09-06T02:05:39.154Z,100.00
2022-09-06T02:06:42.904Z,100.00
2022-09-06T02:07:47.369Z,100.00
2022-09-06T02:08:50.280Z,100.00
2022-09-06T02:09:59.069Z,100.00
2022-09-06T02:11:04.769Z,100.00
2022-09-06T02:12:09.424Z,100.00
2022-09-06T02:13:11.305Z,100.00
2022-09-06T02:14:19.894Z,100.00
2022-09-06T02:15:23.670Z,100.00
2022-09-06T02:16:30.104Z,100.00
2022-09-06T02:17:33.150Z,100.00
2022-09-06T02:18:39.346Z,100.00
2022-09-06T02:20:12.762Z,100.00
2022-09-06T02:21:15.232Z,100.00
2022-09-06T02:22:20.209Z,100.00
2022-09-06T02:23:25.733Z,100.00
2022-09-06T02:24:31.249Z,100.00
2022-09-06T02:25:36.156Z,100.00
2022-09-06T02:26:41.574Z,100.00
2022-09-06T02:27:43.430Z,100.00
2022-09-06T02:28:47.943Z,100.00
2022-09-06T02:29:49.746Z,100.00
2022-09-06T02:30:55.829Z,100.00
2022-09-06T02:32:15.283Z,100.00
2022-09-06T02:33:18.734Z,100.00
2022-09-06T02:34:23.287Z,100.00
2022-09-06T02:35:25.092Z,100.00
2022-09-06T02:36:29.498Z,100.00
2022-09-06T02:37:31.372Z,100.00
2022-09-06T02:38:35.966Z,100.00
2022-09-06T02:39:40.920Z,100.00
2022-09-06T02:40:45.840Z,100.00
2022-09-06T02:41:48.158Z,100.00
2022-09-06T02:42:53.606Z,100.00
2022-09-06T02:43:55.413Z,100.00
2022-09-06T02:44:59.797Z,100.00
2022-09-06T02:46:01.720Z,100.00
2022-09-06T02:47:06.442Z,100.00
2022-09-06T02:48:08.233Z,100.00
2022-09-06T02:49:12.685Z,100.00
2022-09-06T02:50:15.446Z,100.00
2022-09-06T02:51:20.745Z,100.00
2022-09-06T02:52:22.588Z,100.00
2022-09-06T02:53:27.402Z,100.00
2022-09-06T02:54:29.276Z,100.00
2022-09-06T02:55:33.706Z,100.00
2022-09-06T02:56:36.752Z,100.00
2022-09-06T02:57:41.222Z,100.00
2022-09-06T02:58:43.175Z,100.00
2022-09-06T02:59:47.569Z,100.00
2022-09-06T03:00:50.176Z,100.00
2022-09-06T03:01:54.693Z,100.00
2022-09-06T03:02:56.701Z,100.00
2022-09-06T03:04:01.102Z,100.00
2022-09-06T03:05:03.109Z,100.00
2022-09-06T03:06:07.622Z,100.00
2022-09-06T03:07:09.490Z,100.00
2022-09-06T03:08:13.935Z,100.00
2022-09-06T03:09:15.826Z,100.00
2022-09-06T03:10:20.353Z,100.00
2022-09-06T03:11:22.183Z,100.00
2022-09-06T03:12:26.573Z,100.00
2022-09-06T03:13:28.579Z,100.00
2022-09-06T03:14:32.998Z,100.00
2022-09-06T03:15:34.785Z,100.00
2022-09-06T03:16:39.831Z,100.00
2022-09-06T03:17:41.782Z,100.00
2022-09-06T03:18:46.992Z,100.00
2022-09-06T03:19:48.828Z,100.00
2022-09-06T03:20:53.858Z,100.00
2022-09-06T03:21:55.699Z,100.00
2022-09-06T03:23:00.083Z,100.00
2022-09-06T03:24:02.032Z,100.00
2022-09-06T03:25:06.583Z,100.00
2022-09-06T03:26:08.523Z,100.00
2022-09-06T03:27:12.947Z,100.00
2022-09-06T03:28:14.768Z,100.00
2022-09-06T03:29:19.182Z,100.00
2022-09-06T03:30:21.013Z,100.00
2022-09-06T03:31:25.542Z,100.00
2022-09-06T03:32:27.340Z,100.00
2022-09-06T03:33:31.726Z,100.00
2022-09-06T03:34:33.558Z,100.00
2022-09-06T03:35:38.328Z,100.00
2022-09-06T03:36:42.745Z,100.00
2022-09-06T03:37:44.590Z,100.00
2022-09-06T03:38:49.759Z,100.00
2022-09-06T03:39:51.676Z,100.00
2022-09-06T03:40:56.217Z,100.00
2022-09-06T03:41:58.127Z,100.00
2022-09-06T03:43:02.513Z,100.00
2022-09-06T03:44:04.584Z,100.00
2022-09-06T03:45:09.277Z,100.00
2022-09-06T03:46:11.154Z,100.00
2022-09-06T03:47:19.268Z,100.00
2022-09-06T03:48:22.355Z,100.00
2022-09-06T03:49:26.977Z,100.00
2022-09-06T03:50:28.812Z,100.00
2022-09-06T03:51:33.252Z,100.00
2022-09-06T03:52:35.119Z,100.00
2022-09-06T03:53:39.744Z,100.00
2022-09-06T03:54:41.588Z,100.00
2022-09-06T03:55:49.466Z,100.00
2022-09-06T03:56:51.490Z,100.00
2022-09-06T03:57:55.924Z,100.00
2022-09-06T03:58:57.771Z,100.00
2022-09-06T04:00:02.134Z,100.00
2022-09-06T04:01:13.532Z,100.00
2022-09-06T04:02:18.021Z,100.00
2022-09-06T04:03:20.251Z,100.00
2022-09-06T04:04:24.629Z,100.00
2022-09-06T04:05:26.885Z,100.00
2022-09-06T04:06:31.284Z,100.00
2022-09-06T04:07:33.071Z,100.00
2022-09-06T04:08:38.249Z,100.00
2022-09-06T04:09:40.055Z,100.00
2022-09-06T04:10:45.358Z,100.00
2022-09-06T04:11:49.758Z,100.00
2022-09-06T04:12:51.550Z,100.00
2022-09-06T04:13:55.958Z,100.00
2022-09-06T04:14:57.805Z,100.00
2022-09-06T04:16:02.307Z,100.00
2022-09-06T04:17:04.340Z,100.00
2022-09-06T04:18:09.436Z,100.00
2022-09-06T04:19:11.291Z,100.00
2022-09-06T04:20:16.506Z,100.00
2022-09-06T04:21:18.319Z,100.00
2022-09-06T04:22:22.738Z,100.00
2022-09-06T04:23:25.468Z,100.00
2022-09-06T04:24:30.157Z,100.00
2022-09-06T04:25:32.047Z,100.00
2022-09-06T04:26:36.448Z,100.00
2022-09-06T04:27:38.341Z,100.00
2022-09-06T04:28:42.757Z,100.00
2022-09-06T04:29:44.585Z,100.00
2022-09-06T04:30:49.511Z,100.00
2022-09-06T04:31:54.223Z,100.00
2022-09-06T04:32:56.149Z,100.00
2022-09-06T04:34:00.555Z,100.00
2022-09-06T04:35:02.400Z,100.00
2022-09-06T04:36:08.048Z,100.00
2022-09-06T04:37:09.841Z,100.00
2022-09-06T04:38:14.321Z,100.00
2022-09-06T04:39:16.123Z,100.00
2022-09-06T04:40:20.554Z,100.00
2022-09-06T04:41:22.357Z,100.00
2022-09-06T04:42:26.788Z,100.00
2022-09-06T04:43:28.600Z,100.00
2022-09-06T04:44:33.035Z,100.00
2022-09-06T04:45:34.904Z,100.00
2022-09-06T04:46:39.334Z,100.00
2022-09-06T04:47:41.139Z,100.00
2022-09-06T04:48:45.529Z,100.00
2022-09-06T04:49:48.321Z,100.00
2022-09-06T04:50:52.710Z,100.00
2022-09-06T04:51:54.638Z,100.00
2022-09-06T04:52:59.066Z,100.00
2022-09-06T04:54:00.931Z,100.00
2022-09-06T04:55:05.489Z,100.00
2022-09-06T04:56:07.326Z,100.00
2022-09-06T04:57:12.550Z,100.00
2022-09-06T04:58:14.353Z,100.00
2022-09-06T04:59:18.851Z,100.00
2022-09-06T05:00:20.647Z,100.00
2022-09-06T05:01:26.336Z,100.00
2022-09-06T05:02:29.007Z,100.00
2022-09-06T05:03:33.478Z,100.00
2022-09-06T05:04:35.315Z,100.00
2022-09-06T05:05:39.900Z,100.00
2022-09-06T05:06:43.046Z,100.00
2022-09-06T05:07:47.435Z,100.00
2022-09-06T05:08:49.260Z,100.00
2022-09-06T05:09:53.692Z,100.00
2022-09-06T05:10:55.506Z,100.00
2022-09-06T05:12:00.246Z,100.00
2022-09-06T05:13:02.320Z,100.00
2022-09-06T05:14:06.799Z,100.00
2022-09-06T05:15:08.973Z,100.00
2022-09-06T05:16:13.461Z,100.00
2022-09-06T05:17:15.291Z,100.00
2022-09-06T05:18:20.071Z,100.00
2022-09-06T05:19:22.275Z,100.00
2022-09-06T05:20:26.747Z,100.00
2022-09-06T05:21:28.541Z,100.00
2022-09-06T05:22:33.013Z,100.00
2022-09-06T05:23:34.892Z,100.00
2022-09-06T05:24:39.444Z,100.00
2022-09-06T05:25:41.225Z,100.00
2022-09-06T05:26:45.697Z,100.00
2022-09-06T05:27:50.215Z,100.00
2022-09-06T05:28:54.642Z,100.00
2022-09-06T05:29:56.472Z,100.00
2022-09-06T05:31:17.024Z,100.00
2022-09-06T05:32:18.891Z,100.00
2022-09-06T05:33:25.995Z,100.00
2022-09-06T05:34:27.864Z,100.00
2022-09-06T05:35:32.259Z,100.00
2022-09-06T05:36:34.123Z,100.00
2022-09-06T05:37:38.701Z,100.00
2022-09-06T05:38:43.262Z,100.00
2022-09-06T05:39:45.406Z,100.00
2022-09-06T05:40:49.873Z,100.00
2022-09-06T05:41:51.758Z,100.00
2022-09-06T05:42:56.280Z,100.00
2022-09-06T05:44:00.687Z,100.00
2022-09-06T05:45:02.873Z,100.00
2022-09-06T05:46:07.726Z,100.00
2022-09-06T05:47:09.634Z,100.00
2022-09-06T05:48:14.035Z,100.00
2022-09-06T05:49:15.930Z,100.00
2022-09-06T05:50:20.363Z,100.00
2022-09-06T05:51:22.248Z,100.00
2022-09-06T05:52:26.638Z,100.00
2022-09-06T05:53:34.229Z,100.00
2022-09-06T05:54:38.845Z,100.00
2022-09-06T05:55:42.975Z,100.00
2022-09-06T05:56:47.609Z,100.00
2022-09-06T05:57:49.402Z,100.00
2022-09-06T05:58:53.860Z,100.00
2022-09-06T05:59:55.635Z,100.00
2022-09-06T06:01:19.566Z,100.00
2022-09-06T06:02:22.055Z,100.00
2022-09-06T06:03:26.557Z,100.00
2022-09-06T06:04:28.437Z,100.00
2022-09-06T06:05:32.797Z,100.00
2022-09-06T06:06:34.807Z,100.00
2022-09-06T06:07:39.174Z,100.00
2022-09-06T06:08:41.013Z,100.00
2022-09-06T06:09:45.494Z,100.00
2022-09-06T06:10:47.398Z,100.00
2022-09-06T06:11:51.788Z,100.00
2022-09-06T06:12:53.691Z,100.00
2022-09-06T06:13:58.963Z,100.00
2022-09-06T06:15:00.842Z,100.00
2022-09-06T06:16:06.153Z,100.00
2022-09-06T06:17:07.983Z,100.00
2022-09-06T06:18:12.366Z,100.00
2022-09-06T06:19:16.722Z,100.00
2022-09-06T06:20:18.651Z,100.00
2022-09-06T06:21:23.921Z,100.00
2022-09-06T06:22:25.814Z,100.00
2022-09-06T06:23:30.293Z,100.00
2022-09-06T06:24:34.741Z,100.00
2022-09-06T06:25:36.589Z,100.00
2022-09-06T06:26:41.184Z,100.00
2022-09-06T06:27:43.102Z,99.87
2022-09-06T06:28:47.549Z,98.56
2022-09-06T06:29:50.620Z,95.61
2022-09-06T06:30:55.141Z,95.50
2022-09-06T06:31:57.025Z,94.69
2022-09-06T06:33:02.622Z,93.60
2022-09-06T06:34:07.061Z,92.19
2022-09-06T06:35:09.763Z,92.22
2022-09-06T06:36:17.203Z,92.00
2022-09-06T06:37:21.626Z,91.21
2022-09-06T06:38:23.506Z,90.87
2022-09-06T06:39:28.033Z,90.46
2022-09-06T06:40:30.857Z,89.76
2022-09-06T06:41:35.486Z,87.99
2022-09-06T06:42:39.923Z,87.67
2022-09-06T06:43:41.941Z,86.79
2022-09-06T06:44:46.504Z,86.40
2022-09-06T06:45:49.092Z,83.97
2022-09-06T06:46:53.509Z,84.17
2022-09-06T06:47:55.312Z,83.62
2022-09-06T06:48:59.766Z,83.98
2022-09-06T06:50:01.742Z,83.39
2022-09-06T06:51:06.173Z,83.38
2022-09-06T06:52:10.559Z,83.33
2022-09-06T06:53:12.438Z,81.60
2022-09-06T06:54:16.890Z,81.13
2022-09-06T06:55:18.724Z,81.13
2022-09-06T06:56:24.383Z,79.75
2022-09-06T06:57:26.921Z,78.86
2022-09-06T06:58:31.417Z,77.91
2022-09-06T06:59:35.865Z,77.42
2022-09-06T07:00:37.663Z,76.81
2022-09-06T07:01:43.236Z,76.83
2022-09-06T07:02:45.163Z,76.27
2022-09-06T07:03:49.653Z,76.45
2022-09-06T07:04:51.511Z,76.81
2022-09-06T07:06:12.286Z,75.41
2022-09-06T07:07:34.413Z,74.22
2022-09-06T07:08:41.085Z,74.03
2022-09-06T07:11:08.207Z,72.91
2022-09-06T07:12:09.999Z,71.74
2022-09-06T07:13:14.437Z,70.42
2022-09-06T07:14:16.922Z,69.94
2022-09-06T07:15:22.000Z,69.59
2022-09-06T07:16:24.231Z,68.52
2022-09-06T07:17:28.749Z,68.57
2022-09-06T07:18:30.549Z,68.89
2022-09-06T07:22:23.997Z,67.07
2022-09-06T07:24:50.238Z,64.01
2022-09-06T07:25:52.039Z,63.51
2022-09-06T07:28:18.443Z,62.72
2022-09-06T07:29:22.859Z,62.61
2022-09-06T07:30:24.700Z,63.04
2022-09-06T07:32:54.363Z,63.15
2022-09-06T07:33:56.250Z,62.44
2022-09-06T07:35:00.654Z,62.71
2022-09-06T07:36:06.057Z,63.11
2022-09-06T07:37:10.431Z,62.49
2022-09-06T07:38:12.292Z,62.60
2022-09-06T07:39:16.722Z,62.58
2022-09-06T07:40:18.592Z,60.77
2022-09-06T07:41:23.586Z,60.12
2022-09-06T07:42:25.422Z,59.69
2022-09-06T07:43:30.182Z,59.85
2022-09-06T07:44:34.636Z,59.59
2022-09-06T07:45:36.490Z,59.37
2022-09-06T07:46:41.067Z,58.90
2022-09-06T07:47:58.625Z,58.49
2022-09-06T07:49:03.343Z,58.59
2022-09-06T07:51:29.803Z,58.22
2022-09-06T07:54:19.328Z,58.19
2022-09-06T07:55:18.574Z,58.08
2022-09-06T07:56:24.496Z,57.45
2022-09-06T07:57:26.370Z,57.44
2022-09-06T07:58:31.541Z,57.35
2022-09-06T07:59:33.343Z,57.52
2022-09-06T08:00:38.445Z,57.23
2022-09-06T08:01:43.007Z,57.25
2022-09-06T08:02:44.867Z,57.46
2022-09-06T08:03:49.878Z,57.32
2022-09-06T08:04:51.853Z,56.64
2022-09-06T08:06:11.686Z,56.28
2022-09-06T08:10:03.456Z,54.92
2022-09-06T08:11:07.573Z,55.67
2022-09-06T08:12:12.054Z,56.26
2022-09-06T08:13:14.156Z,54.89
2022-09-06T08:14:18.578Z,54.82
2022-09-06T08:15:20.386Z,54.34
2022-09-06T08:16:25.334Z,54.05
2022-09-06T08:17:31.348Z,54.25
2022-09-06T08:18:33.549Z,54.74
2022-09-06T08:19:38.018Z,54.44
2022-09-06T08:20:39.896Z,54.02
2022-09-06T08:21:44.367Z,54.11
2022-09-06T08:22:46.368Z,54.46
2022-09-06T08:23:52.065Z,54.09
2022-09-06T08:24:56.451Z,54.36
2022-09-06T08:25:58.773Z,54.40
2022-09-06T08:27:03.702Z,54.74
2022-09-06T08:28:05.507Z,55.00
2022-09-06T08:29:11.056Z,55.14
2022-09-06T08:30:15.610Z,55.06
2022-09-06T08:31:17.759Z,55.06
2022-09-06T11:41:42.842Z,45.78
2022-09-06T11:42:44.740Z,45.54
2022-09-06T11:43:56.666Z,46.46
2022-09-06T11:44:58.456Z,46.53
2022-09-06T11:46:02.890Z,46.81
2022-09-06T11:47:07.851Z,46.97
2022-09-06T11:48:29.050Z,47.38
2022-09-06T11:49:32.757Z,47.12
2022-09-06T11:50:56.458Z,46.52
2022-09-06T11:52:00.909Z,46.55
2022-09-06T11:53:20.422Z,46.08
2022-09-06T11:54:23.646Z,46.11
2022-09-06T11:55:35.246Z,46.19
2022-09-06T11:56:42.798Z,45.83
2022-09-06T11:57:44.813Z,45.81
2022-09-06T11:58:54.095Z,45.80
2022-09-06T12:00:00.595Z,46.13
2022-09-06T12:01:18.782Z,45.97
2022-09-06T12:02:35.101Z,46.08
2022-09-06T12:04:05.875Z,46.08
2022-09-06T12:05:12.591Z,46.12
2022-09-06T12:06:20.925Z,45.62
2022-09-06T12:07:22.726Z,46.50
2022-09-06T12:08:36.955Z,45.69
2022-09-06T12:09:42.735Z,46.34
2022-09-06T12:10:53.484Z,45.92
2022-09-06T12:11:57.947Z,45.96
2022-09-06T12:12:59.722Z,45.92
2022-09-06T12:14:06.025Z,46.03
2022-09-06T12:15:42.568Z,45.54
2022-09-06T12:17:03.228Z,45.13
2022-09-06T12:18:07.738Z,44.89
2022-09-06T12:19:12.745Z,45.66
2022-09-06T12:20:37.062Z,45.29
2022-09-06T12:21:43.503Z,45.29
2022-09-06T12:22:50.847Z,45.25
2022-09-06T12:23:55.236Z,45.61
2022-09-06T12:25:03.613Z,45.45
2022-09-06T12:26:11.703Z,45.72
2022-09-06T12:27:29.628Z,45.35
2022-09-06T12:28:50.745Z,45.60
2022-09-06T12:29:59.641Z,45.33
2022-09-06T12:31:04.390Z,46.15
2022-09-06T12:32:08.930Z,46.01
2022-09-06T12:33:14.614Z,44.89
2022-09-06T12:34:29.800Z,44.37
2022-09-06T12:37:11.139Z,44.31
2022-09-06T12:38:13.832Z,44.44
2022-09-06T12:39:18.250Z,43.83
2022-09-06T12:40:20.341Z,43.34
2022-09-06T12:41:24.771Z,43.19
2022-09-06T12:42:29.445Z,42.85
2022-09-06T12:43:36.096Z,42.87
2022-09-06T12:44:42.130Z,43.26
2022-09-06T12:45:44.688Z,43.50
2022-09-06T12:46:53.065Z,44.09
2022-09-06T12:48:16.226Z,43.35
2022-09-06T12:49:18.757Z,43.20
2022-09-06T12:50:25.921Z,42.81
2022-09-06T12:51:27.705Z,43.50
2022-09-06T12:52:32.229Z,44.22
2022-09-06T12:53:35.034Z,44.45
2022-09-06T12:54:50.044Z,44.11
2022-09-06T12:56:04.848Z,44.78
2022-09-06T12:57:16.776Z,43.40
2022-09-06T12:58:24.710Z,42.83
2022-09-06T12:59:27.300Z,42.46
2022-09-06T13:00:35.229Z,42.31
2022-09-06T13:01:37.281Z,42.33
2022-09-06T13:02:43.891Z,42.32
2022-09-06T13:03:46.483Z,42.44
2022-09-06T13:04:53.304Z,42.56
2022-09-06T13:05:55.530Z,42.41
2022-09-06T13:06:59.946Z,42.30
2022-09-06T13:08:02.333Z,42.34
2022-09-06T13:09:06.775Z,42.35
2022-09-06T13:10:08.584Z,42.57
2022-09-06T13:11:13.691Z,42.56
2022-09-06T13:12:31.438Z,42.66
2022-09-06T13:13:33.571Z,42.91
2022-09-06T13:14:37.981Z,43.05
2022-09-06T13:15:42.944Z,42.90
2022-09-06T13:16:45.604Z,42.77
2022-09-06T13:17:50.646Z,42.93
2022-09-06T13:18:52.663Z,43.39
2022-09-06T13:19:58.225Z,43.12
2022-09-06T13:21:00.307Z,42.91
2022-09-06T13:22:05.503Z,43.02
2022-09-06T13:23:11.690Z,42.83
2022-09-06T13:24:23.709Z,42.95
2022-09-06T13:25:26.093Z,43.73
2022-09-06T13:26:40.543Z,44.30
2022-09-06T13:27:50.916Z,44.99
2022-09-06T13:28:55.364Z,44.85
2022-09-06T13:29:58.010Z,45.28
2022-09-06T13:31:05.948Z,45.06
2022-09-06T13:32:14.608Z,44.74
2022-09-06T13:33:28.554Z,44.44
2022-09-06T13:34:31.648Z,44.13
2022-09-06T13:35:37.731Z,43.46
2022-09-06T13:36:39.559Z,43.66
2022-09-06T13:37:45.344Z,43.55
2022-09-06T13:38:47.212Z,43.64
2022-09-06T13:39:51.644Z,43.49
2022-09-06T13:41:11.612Z,43.19
2022-09-06T13:42:30.232Z,43.15
2022-09-06T13:43:33.505Z,42.86
2022-09-06T13:44:38.898Z,42.71
2022-09-06T13:45:42.037Z,42.94
2022-09-06T13:46:46.792Z,42.42
2022-09-06T13:47:48.792Z,42.39
2022-09-06T13:48:53.313Z,41.74
2022-09-06T13:49:55.312Z,41.75
2022-09-06T13:50:59.770Z,41.67
2022-09-06T13:52:02.262Z,42.07
2022-09-06T13:53:06.685Z,41.57
2022-09-06T13:54:10.617Z,41.64
2022-09-06T13:55:16.725Z,41.46
2022-09-06T13:56:19.339Z,41.68
2022-09-06T13:57:24.753Z,41.47
2022-09-06T13:58:26.747Z,41.52
2022-09-06T13:59:31.716Z,41.47
2022-09-06T14:00:33.729Z,41.91
2022-09-06T14:01:38.151Z,42.10
2022-09-06T14:02:46.686Z,41.97
2022-09-06T14:03:48.575Z,42.08
2022-09-06T14:04:53.089Z,42.11
2022-09-06T14:05:54.957Z,42.53
2022-09-06T14:06:59.769Z,42.00
2022-09-06T14:08:01.575Z,41.33
2022-09-06T14:09:07.644Z,41.22
2022-09-06T14:10:11.634Z,41.30
2022-09-06T14:11:17.021Z,40.91
2022-09-06T14:12:21.504Z,40.95
2022-09-06T14:13:25.866Z,41.57
2022-09-06T14:14:27.685Z,41.56
2022-09-06T14:15:32.200Z,41.72
2022-09-06T14:16:34.181Z,41.87
2022-09-06T14:17:39.390Z,42.37
2022-09-06T14:18:41.368Z,42.22
2022-09-06T14:19:45.753Z,42.81
2022-09-06T14:20:54.034Z,42.35
2022-09-06T14:21:58.434Z,42.28
2022-09-06T14:23:00.386Z,43.31
2022-09-06T14:24:04.927Z,42.78
2022-09-06T14:25:10.685Z,42.25
2022-09-06T14:26:13.498Z,42.99
2022-09-06T14:27:18.659Z,43.58
2022-09-06T14:28:20.616Z,43.47
2022-09-06T14:29:25.078Z,43.39
2022-09-06T14:30:26.855Z,43.33
2022-09-06T14:31:32.714Z,43.44
2022-09-06T14:32:37.896Z,43.82
2022-09-06T14:33:39.734Z,43.59
2022-09-06T14:34:44.173Z,42.97
2022-09-06T14:35:45.982Z,42.79
2022-09-06T14:36:50.389Z,43.54
2022-09-06T14:37:52.197Z,43.81
2022-09-06T14:38:56.602Z,43.68
2022-09-06T14:39:58.750Z,43.30
2022-09-06T14:41:06.516Z,42.94
2022-09-06T14:42:29.633Z,43.71
2022-09-06T14:43:31.734Z,43.82
2022-09-06T14:44:36.165Z,42.78
2022-09-06T14:45:37.969Z,42.36
2022-09-06T14:46:42.532Z,42.01
2022-09-06T14:47:44.442Z,42.33
2022-09-06T14:48:48.819Z,42.64
2022-09-06T14:49:50.664Z,43.08
2022-09-06T14:50:55.098Z,43.34
2022-09-06T14:51:59.807Z,42.85
2022-09-06T14:53:02.127Z,42.35
2022-09-06T14:54:07.758Z,41.86
2022-09-06T14:55:09.754Z,41.53
2022-09-06T14:56:14.366Z,40.99
2022-09-06T14:57:16.331Z,40.40
2022-09-06T14:58:20.807Z,40.37
2022-09-06T14:59:25.226Z,40.69
2022-09-06T15:00:29.649Z,40.91
2022-09-06T15:01:38.403Z,40.90
2022-09-06T15:02:44.226Z,41.09
2022-09-06T15:03:48.541Z,40.91
2022-09-06T15:04:53.257Z,41.08
2022-09-06T15:05:55.122Z,41.37
2022-09-06T15:06:59.590Z,41.58
2022-09-06T15:08:01.433Z,42.59
2022-09-06T15:09:07.211Z,42.13
2022-09-06T15:10:09.127Z,42.55
2022-09-06T15:11:14.001Z,42.59
2022-09-06T15:12:18.388Z,42.85
2022-09-06T15:13:20.298Z,42.63
2022-09-06T15:14:25.655Z,42.99
2022-09-06T15:15:27.487Z,42.66
2022-09-06T15:16:32.726Z,42.23
2022-09-06T15:17:35.230Z,41.88
2022-09-06T15:18:39.699Z,41.93
2022-09-06T15:19:41.608Z,42.18
2022-09-06T15:20:46.565Z,41.86
2022-09-06T15:21:48.436Z,41.51
2022-09-06T15:23:03.869Z,41.67
2022-09-06T15:24:15.295Z,41.97
2022-09-06T15:25:19.753Z,42.37
2022-09-06T15:26:22.333Z,42.33
2022-09-06T15:27:26.763Z,42.61
2022-09-06T15:28:28.608Z,42.98
2022-09-06T15:29:33.042Z,43.53
2022-09-06T15:30:34.994Z,43.32
2022-09-06T15:31:40.092Z,43.38
2022-09-06T15:32:42.091Z,43.41
2022-09-06T15:33:48.850Z,43.51
2022-09-06T15:34:50.777Z,43.99
2022-09-06T15:35:58.285Z,44.09
2022-09-06T15:37:00.200Z,43.93
2022-09-06T15:38:04.637Z,43.59
2022-09-06T15:39:06.670Z,43.95
2022-09-06T15:40:11.954Z,44.32
2022-09-06T15:41:27.155Z,44.78
2022-09-06T15:42:29.337Z,45.57
2022-09-06T15:43:34.783Z,45.68
2022-09-06T15:44:39.175Z,45.46
2022-09-06T15:45:48.269Z,45.40
2022-09-06T15:46:57.669Z,45.38
2022-09-06T15:47:59.703Z,45.40
2022-09-06T15:49:04.272Z,45.42
2022-09-06T15:50:08.751Z,45.21
2022-09-06T15:51:11.233Z,44.93
2022-09-06T15:52:15.810Z,44.65
2022-09-06T15:53:17.647Z,44.48
2022-09-06T15:54:42.600Z,44.50
2022-09-06T15:55:56.501Z,44.62
2022-09-06T15:56:58.415Z,44.41
2022-09-06T15:58:02.789Z,44.59
2022-09-06T15:59:04.823Z,45.00
2022-09-06T16:00:09.513Z,45.46
2022-09-06T16:01:14.158Z,45.53
2022-09-06T16:02:16.234Z,45.56
2022-09-06T16:03:20.754Z,45.21
2022-09-06T16:04:25.210Z,44.56
2022-09-06T16:06:52.679Z,44.64
2022-09-06T16:07:54.533Z,45.63
2022-09-06T16:09:00.127Z,46.79
2022-09-06T16:10:02.444Z,47.65
2022-09-06T16:11:12.301Z,48.34
2022-09-06T16:12:14.384Z,48.55
2022-09-06T16:13:19.821Z,48.72
2022-09-06T16:14:22.067Z,49.18
2022-09-06T16:15:26.724Z,49.67
2022-09-06T16:16:29.462Z,49.87
2022-09-06T16:17:33.986Z,50.32
2022-09-06T16:18:36.465Z,50.56
2022-09-06T16:19:40.897Z,50.85
2022-09-06T16:20:42.793Z,50.93
2022-09-06T16:21:47.208Z,51.00
2022-09-06T16:22:49.502Z,51.60
2022-09-06T16:23:57.649Z,52.05
2022-09-06T16:24:59.578Z,52.21
2022-09-06T16:26:04.035Z,52.36
2022-09-06T16:27:08.570Z,52.75
2022-09-06T16:28:10.417Z,53.38
2022-09-06T16:29:16.400Z,53.54
2022-09-06T16:30:18.312Z,53.98
2022-09-06T16:31:23.709Z,54.24
2022-09-06T16:32:28.293Z,54.97
2022-09-06T16:33:30.258Z,54.87
2022-09-06T16:34:34.679Z,55.24
2022-09-06T16:35:40.592Z,55.20
2022-09-06T16:36:45.069Z,55.45
2022-09-06T16:37:46.906Z,55.42
2022-09-06T16:38:51.515Z,55.88
2022-09-06T16:39:56.485Z,56.06
2022-09-06T16:40:59.042Z,56.14
2022-09-06T16:42:03.467Z,56.13
2022-09-06T16:43:05.882Z,56.25
2022-09-06T16:44:16.771Z,56.42
2022-09-06T16:45:19.431Z,57.05
2022-09-06T16:46:24.739Z,57.06
2022-09-06T16:47:26.867Z,57.44
2022-09-06T16:48:31.707Z,57.58
2022-09-06T16:49:36.109Z,57.79
2022-09-06T16:50:38.406Z,57.60
2022-09-06T16:51:43.137Z,57.88
2022-09-06T16:52:44.982Z,57.85
2022-09-06T16:53:49.955Z,58.23
2022-09-06T16:54:51.848Z,58.21
2022-09-06T16:55:56.374Z,58.72
2022-09-06T16:56:58.375Z,58.88
2022-09-06T16:58:02.928Z,59.10
2022-09-06T16:59:05.521Z,59.23
2022-09-06T17:00:11.308Z,59.61
2022-09-06T17:01:13.175Z,60.07
2022-09-06T17:02:18.236Z,60.34
2022-09-06T17:03:20.158Z,60.23
2022-09-06T17:04:24.713Z,60.45
2022-09-06T17:05:26.715Z,60.77
2022-09-06T17:06:31.557Z,60.90
2022-09-06T17:07:33.769Z,61.17
2022-09-06T17:08:39.299Z,61.53
2022-09-06T17:09:41.687Z,62.07
2022-09-06T17:10:46.198Z,61.96
2022-09-06T17:11:51.270Z,62.51
2022-09-06T17:12:53.127Z,62.85
2022-09-06T17:13:58.155Z,63.31